createdAt,value
2023-04-16T00:01:53.312Z,6.34
2023-04-16T00:11:55.793Z,5.72
2023-04-16T00:21:57.904Z,5.76
2023-04-16T00:32:00.092Z,6.58
2023-04-16T00:42:02.176Z,6.02
2023-04-16T00:52:04.489Z,5.80
2023-04-16T01:02:06.720Z,5.74
2023-04-16T01:12:08.860Z,5.24
2023-04-16T01:22:11.356Z,5.56
2023-04-16T01:32:13.420Z,6.22
2023-04-16T01:42:16.800Z,5.51
2023-04-16T01:52:18.948Z,5.42
2023-04-16T02:02:21.184Z,5.24
2023-04-16T02:12:23.414Z,5.16
2023-04-16T02:22:25.813Z,5.98
2023-04-16T02:32:28.225Z,5.89
2023-04-16T02:42:30.367Z,5.83
2023-04-16T02:52:33.575Z,5.68
2023-04-16T03:02:36.044Z,5.88
2023-04-16T03:12:39.129Z,5.59
2023-04-16T03:22:42.442Z,6.10
2023-04-16T03:32:44.575Z,6.52
2023-04-16T03:42:46.785Z,5.98
2023-04-16T03:52:49.431Z,5.61
2023-04-16T04:02:53.083Z,6.50
2023-04-16T04:12:55.889Z,6.26
2023-04-16T04:22:58.495Z,6.08
2023-04-16T04:33:01.880Z,5.81
2023-04-16T04:43:04.138Z,6.92
2023-04-16T04:53:10.277Z,6.40
2023-04-16T05:03:19.353Z,6.87
2023-04-16T05:13:21.589Z,6.33
2023-04-16T05:23:23.645Z,6.21
2023-04-16T05:33:25.741Z,6.36
2023-04-16T05:43:27.821Z,6.59
2023-04-16T05:53:29.914Z,6.43
2023-04-16T06:03:32.071Z,6.73
2023-04-16T06:13:34.191Z,6.87
2023-04-16T06:23:36.291Z,6.55
2023-04-16T06:33:38.376Z,6.93
2023-04-16T06:43:40.673Z,6.90
2023-04-16T06:53:42.921Z,6.17
2023-04-16T07:03:45.155Z,6.96
2023-04-16T07:13:47.531Z,6.47
2023-04-16T07:23:49.645Z,6.87
2023-04-16T07:33:54.592Z,6.68
2023-04-16T07:44:01.040Z,7.24
2023-04-16T07:54:03.290Z,7.19
2023-04-16T08:04:05.483Z,6.81
2023-04-16T08:14:07.747Z,6.89
2023-04-16T08:24:09.922Z,7.19
2023-04-16T08:34:13.720Z,7.64
2023-04-16T08:44:21.948Z,7.21
2023-04-16T08:54:33.091Z,7.80
2023-04-16T09:04:37.175Z,7.65
2023-04-16T09:14:41.857Z,8.62
2023-04-16T09:24:44.403Z,7.78
2023-04-16T09:35:01.013Z,8.54
2023-04-16T09:45:05.905Z,8.61
2023-04-16T09:55:08.384Z,8.44
2023-04-16T10:05:16.699Z,8.28
2023-04-16T10:15:19.016Z,8.93
2023-04-16T10:25:21.787Z,9.47
2023-04-16T10:35:25.442Z,9.24
2023-04-16T10:45:32.861Z,10.03
2023-04-16T10:55:40.043Z,9.42
2023-04-16T11:05:47.162Z,9.66
2023-04-16T11:15:49.348Z,9.94
2023-04-16T11:25:56.998Z,9.87
2023-04-16T11:35:59.253Z,9.85
2023-04-16T11:46:20.168Z,10.13
2023-04-16T11:56:35.800Z,10.54
2023-04-16T12:06:37.957Z,10.25
2023-04-16T12:16:41.336Z,10.43
2023-04-16T12:26:46.716Z,10.39
2023-04-16T12:37:04.245Z,10.79
2023-04-16T12:47:06.894Z,10.55
2023-04-16T12:57:09.002Z,9.92
2023-04-16T13:07:11.360Z,10.30
2023-04-16T13:17:13.865Z,10.35
2023-04-16T13:27:17.085Z,10.53
2023-04-16T13:37:19.484Z,11.81
2023-04-16T13:47:22.070Z,11.20
2023-04-16T13:57:25.718Z,11.41
2023-04-16T14:07:29.287Z,10.79
2023-04-16T14:17:31.655Z,10.90
2023-04-16T14:27:34.456Z,11.24
2023-04-16T14:37:36.939Z,11.31
2023-04-16T14:47:46.405Z,11.14
2023-04-16T14:57:48.728Z,11.97
2023-04-16T15:07:51.342Z,11.50
2023-04-16T15:17:53.651Z,11.73
2023-04-16T15:27:55.891Z,11.07
2023-04-16T15:37:58.495Z,10.54
2023-04-16T15:48:00.889Z,11.08
2023-04-16T15:58:03.158Z,11.60
2023-04-16T16:08:12.244Z,10.88
2023-04-16T16:18:14.677Z,11.61
2023-04-16T16:28:17.044Z,11.34
2023-04-16T16:38:19.766Z,11.52
2023-04-16T16:48:22.133Z,11.80
2023-04-16T16:58:24.269Z,11.90
2023-04-16T17:08:26.351Z,11.29
2023-04-16T17:18:28.641Z,10.42
2023-04-16T17:28:30.745Z,10.66
2023-04-16T17:38:33.922Z,11.33
2023-04-16T17:48:36.004Z,11.22
2023-04-16T17:58:38.341Z,11.12
2023-04-16T18:08:40.710Z,11.58
2023-04-16T18:18:43.966Z,11.51
2023-04-16T18:28:46.028Z,11.43
2023-04-16T18:39:00.183Z,11.31
2023-04-16T18:49:04.008Z,11.52
2023-04-16T18:59:06.583Z,11.29
2023-04-16T19:09:11.294Z,10.99
2023-04-16T19:19:14.011Z,10.71
2023-04-16T19:29:17.905Z,10.17
2023-04-16T19:39:19.973Z,10.19
2023-04-16T19:49:22.387Z,9.40
2023-04-16T19:59:28.363Z,8.85
2023-04-16T20:09:30.500Z,9.54
2023-04-16T20:19:37.781Z,9.07
2023-04-16T20:29:41.343Z,9.74
2023-04-16T20:39:45.098Z,9.87
2023-04-16T20:49:47.255Z,10.30
2023-04-16T20:59:49.427Z,10.12
2023-04-16T21:09:51.749Z,9.95
2023-04-16T21:19:53.939Z,9.98
2023-04-16T21:29:55.982Z,10.18
2023-04-16T21:39:58.031Z,10.03
2023-04-16T21:50:00.178Z,9.97
2023-04-16T22:00:02.879Z,9.84
2023-04-16T22:10:08.683Z,10.21
2023-04-16T22:20:13.717Z,10.17
2023-04-16T22:30:15.987Z,9.91
2023-04-16T22:40:18.182Z,9.81
2023-04-16T22:50:20.709Z,9.30
2023-04-16T23:00:22.876Z,9.86
2023-04-16T23:10:24.921Z,9.74
2023-04-16T23:20:28.935Z,9.73
2023-04-16T23:30:30.991Z,9.81
2023-04-16T23:40:33.026Z,9.78
2023-04-16T23:50:35.731Z,9.53
